New York, New York
Traffic Map
Current Weather Conditions
New York, New York
Overcast Moderate Rain
Overcast
14°
Feels Like: 14°
Wind Chill: 14° Ceiling: 500
Heat Index: 14° Visibility: 2.5mi
Dew Point: 13° Wind: 7mph
Humidity: 93% Direction: ° ()
Pressure: 29.86in Gusts: 0mph
Raw Report DataKNYC 240751Z AUTO VRB06KT 2 1/2SM RA BR OVC005 14/13 A2986 RMK AO2 RAB0655 PRESFR SLP102 P0016 T01390128 $
Traffic Incident Summary
Active as of:
Severity:
Category:
InformationThere was an issue retrieving the traffic information for this location. Please try a different location or try again shortly.
Advertisements
Track Severe Weather on mobile